Randall, Iowa
Current Conditions -  °F | °C
As of 3:17 PM on Sunday 23 Nov 2014 (Local Time) from KAMW Reporting Station
Light Rain Light Rain  
Wind Chill: 44°   Ceiling: 600
Heat Index: 49°   Visibility: 2mi
Dew Point: 46°   Wind: 14mph
Humidity: 90%   Direction: 330°NNW
Pressure: 29.36"   Gusts: NA
Location:  42.24°N, 93.6°W
Report Text: KAMW 232117Z AUTO 33012KT 2SM -RA BR BKN006 OVC010 09/08 A2936 RMK AO2 P0005 T00940078 $
Loading
Personal Weather Stations






























Interactive Weather Map New forecast layout! Learn more

10-Day Weather Forecast

Advertisements
Track Severe Weather on mobile